Time;durP1;ratioP1;P1;durP2;ratioP2;P2;SDS_P1;SDS_P2;PMS_P1;PMS_P2;Temp;Humidity;BMP_temperature;BMP_pressure;BME280_temperature;BME280_humidity;BME280_pressure;Samples;Min_cycle;Max_cycle;Signal;HPM_P1;HPM_P2
2022/05/28 00:01:23;;;;;;;9.45;2.53;;;;;;;10.22;69.09;102108.56;4989657;28;20851;-88
2022/05/28 00:03:49;;;;;;;10.68;3.22;;;;;;;10.17;69.24;102102.50;4980317;28;20045;-90
2022/05/28 00:06:20;;;;;;;9.50;2.75;;;;;;;10.18;69.14;102104.25;4989842;28;20069;-87
2022/05/28 00:08:46;;;;;;;10.40;3.47;;;;;;;10.17;69.08;102092.50;4998082;28;20046;-87
2022/05/28 00:11:14;;;;;;;11.80;3.53;;;;;;;10.20;69.39;102103.19;4991708;28;20048;-88
2022/05/28 00:13:39;;;;;;;10.82;2.60;;;;;;;10.13;69.58;102087.28;4990144;28;20065;-89
2022/05/28 00:16:05;;;;;;;9.18;3.25;;;;;;;10.20;70.17;102100.47;4977668;28;20461;-87
2022/05/28 00:18:31;;;;;;;14.52;3.28;;;;;;;10.17;69.63;102087.06;5010310;28;20034;-90
2022/05/28 00:20:57;;;;;;;9.27;2.75;;;;;;;10.22;70.11;102094.97;5003345;28;20542;-86
2022/05/28 00:23:25;;;;;;;8.25;2.85;;;;;;;10.19;69.67;102087.84;4978071;28;20046;-87
2022/05/28 00:25:50;;;;;;;9.77;3.20;;;;;;;10.16;69.97;102079.81;4983298;28;20030;-87
2022/05/28 00:28:21;;;;;;;12.10;3.42;;;;;;;10.18;70.61;102090.66;4974821;28;20068;-89
2022/05/28 00:30:47;;;;;;;10.25;3.10;;;;;;;10.18;70.55;102086.09;5013122;28;20026;-89
2022/05/28 00:33:23;;;;;;;12.00;3.33;;;;;;;10.20;69.96;102088.72;4979030;28;20137;-90
2022/05/28 00:35:50;;;;;;;12.20;3.47;;;;;;;10.14;70.28;102078.16;4986540;28;20038;-87
2022/05/28 00:38:17;;;;;;;10.63;3.67;;;;;;;10.19;70.98;102086.97;5000478;28;20473;-90
2022/05/28 00:40:48;;;;;;;10.88;3.58;;;;;;;10.18;71.03;102083.38;4987873;28;20375;-88
2022/05/28 00:43:15;;;;;;;11.52;3.20;;;;;;;10.18;70.66;102077.06;4979593;28;20136;-91
2022/05/28 00:45:43;;;;;;;12.25;4.10;;;;;;;10.29;70.50;102087.41;4977176;28;20053;-89
2022/05/28 00:48:09;;;;;;;8.68;3.08;;;;;;;10.29;70.56;102090.13;4995122;28;20042;-88
2022/05/28 00:50:36;;;;;;;12.25;3.50;;;;;;;10.30;70.51;102084.59;4985901;28;20038;-88
2022/05/28 00:53:03;;;;;;;11.93;3.28;;;;;;;10.31;70.81;102096.38;5009583;28;20099;-92
2022/05/28 00:55:32;;;;;;;15.23;3.60;;;;;;;10.23;71.12;102075.84;4993194;28;20032;-86
2022/05/28 00:58:03;;;;;;;9.32;3.42;;;;;;;10.21;70.97;102063.28;4973253;28;20045;-88
2022/05/28 01:00:29;;;;;;;13.68;3.33;;;;;;;10.24;70.60;102071.31;4975845;28;20057;-90
2022/05/28 01:03:08;;;;;;;16.73;3.17;;;;;;;10.17;71.25;102072.56;4983220;28;20034;-90
2022/05/28 01:05:36;;;;;;;14.52;3.85;;;;;;;10.14;71.31;102075.44;5002303;28;20425;-91
2022/05/28 01:08:18;;;;;;;9.02;3.30;;;;;;;10.10;71.47;102072.00;4979679;28;20018;-90
2022/05/28 01:10:57;;;;;;;11.60;3.95;;;;;;;10.04;71.56;102060.56;4982326;28;20044;-89
2022/05/28 01:13:47;;;;;;;13.43;3.63;;;;;;;10.04;71.26;102072.31;4994573;28;20084;-88
2022/05/28 01:16:34;;;;;;;13.05;3.67;;;;;;;9.99;70.47;102054.47;4992404;28;20033;-89
2022/05/28 01:19:02;;;;;;;11.25;3.13;;;;;;;9.96;72.03;102055.50;5007322;28;20115;-87
2022/05/28 01:21:52;;;;;;;13.02;4.13;;;;;;;10.00;71.55;102057.09;4980301;28;20034;-90
2022/05/28 01:24:43;;;;;;;10.85;3.83;;;;;;;9.96;71.22;102064.53;4993783;28;20045;-88
2022/05/28 01:27:18;;;;;;;14.05;3.45;;;;;;;9.94;72.00;102060.16;4973909;28;20042;-89
2022/05/28 01:29:51;;;;;;;7.85;3.15;;;;;;;9.88;72.19;102053.16;4993838;28;20100;-93
2022/05/28 01:32:19;;;;;;;12.10;2.80;;;;;;;9.82;72.62;102049.88;4989720;28;20031;-90
2022/05/28 01:34:45;;;;;;;11.70;3.60;;;;;;;9.80;72.43;102055.41;4992674;28;20026;-88
2022/05/28 01:37:12;;;;;;;11.70;3.13;;;;;;;9.78;72.41;102051.84;4975410;28;20492;-88
2022/05/28 01:39:40;;;;;;;12.60;3.75;;;;;;;9.75;72.49;102053.88;4987234;28;20083;-89
2022/05/28 01:42:10;;;;;;;10.02;3.33;;;;;;;9.76;72.71;102063.78;4991934;28;20041;-87
2022/05/28 01:44:39;;;;;;;15.88;3.17;;;;;;;9.75;72.23;102057.47;5001917;28;20123;-87
2022/05/28 01:47:04;;;;;;;11.80;3.20;;;;;;;9.70;72.93;102044.09;5001198;28;20030;-90
2022/05/28 01:49:32;;;;;;;9.57;3.40;;;;;;;9.69;73.52;102055.03;4964425;28;20052;-90
2022/05/28 01:52:01;;;;;;;9.45;3.45;;;;;;;9.68;72.79;102050.56;4993106;28;20030;-90
2022/05/28 01:54:34;;;;;;;9.20;3.45;;;;;;;9.72;73.30;102065.75;4991727;28;20057;-87
2022/05/28 01:57:00;;;;;;;13.77;3.08;;;;;;;9.59;73.62;102045.56;4993063;28;20030;-89
2022/05/28 01:59:36;;;;;;;9.38;3.35;;;;;;;9.64;73.06;102055.25;4986340;28;20503;-89
2022/05/28 02:02:06;;;;;;;10.77;3.63;;;;;;;9.64;73.93;102063.41;4975422;28;20099;-87
2022/05/28 02:04:34;;;;;;;11.23;3.33;;;;;;;9.49;73.58;102038.84;4978969;28;20448;-89
2022/05/28 02:07:02;;;;;;;12.70;2.95;;;;;;;9.61;74.41;102058.16;4993946;28;20034;-88
2022/05/28 02:09:33;;;;;;;12.55;3.40;;;;;;;9.65;73.34;102065.19;4992642;28;20383;-93
2022/05/28 02:12:05;;;;;;;10.23;2.88;;;;;;;9.63;74.11;102064.38;4988232;28;20041;-89
2022/05/28 02:14:58;;;;;;;14.77;3.67;;;;;;;9.62;73.25;102062.63;4974826;28;20034;-89
2022/05/28 02:17:39;;;;;;;9.70;3.20;;;;;;;9.56;73.85;102059.31;4992404;28;20030;-89
2022/05/28 02:20:28;;;;;;;17.08;3.28;;;;;;;9.53;73.83;102057.63;4974384;28;20474;-87
2022/05/28 02:23:30;;;;;;;20.08;3.70;;;;;;;9.53;73.58;102060.34;4962087;28;20370;-87
2022/05/28 02:26:07;;;;;;;12.15;3.72;;;;;;;9.50;74.55;102060.47;4987844;28;20507;-89
2022/05/28 02:28:34;;;;;;;12.63;3.70;;;;;;;9.44;75.32;102056.22;4977022;28;20037;-89
2022/05/28 02:31:11;;;;;;;9.52;3.25;;;;;;;9.41;73.88;102044.63;4972998;28;20064;-88
2022/05/28 02:33:37;;;;;;;8.98;3.22;;;;;;;9.39;75.61;102052.88;4990568;28;20498;-89
2022/05/28 02:36:02;;;;;;;13.90;3.05;;;;;;;9.41;75.46;102056.38;4975815;28;20061;-89
2022/05/28 02:38:29;;;;;;;13.43;2.85;;;;;;;9.37;75.06;102052.06;4976150;28;20308;-90
2022/05/28 02:40:55;;;;;;;12.13;3.17;;;;;;;9.32;74.73;102045.06;5008364;28;20045;-88
2022/05/28 02:43:22;;;;;;;9.30;3.13;;;;;;;9.35;74.84;102048.53;4971281;28;20529;-88
2022/05/28 02:45:47;;;;;;;10.82;3.58;;;;;;;9.31;75.31;102046.03;4987916;28;20195;-89
2022/05/28 02:48:13;;;;;;;9.43;3.42;;;;;;;9.24;75.53;102036.44;4980664;28;20038;-90
2022/05/28 02:50:40;;;;;;;14.45;3.40;;;;;;;9.24;76.04;102036.44;5009333;28;20413;-88
2022/05/28 02:53:06;;;;;;;7.55;2.85;;;;;;;9.17;76.01;102022.25;4976143;28;20655;-92
2022/05/28 02:55:32;;;;;;;7.15;2.95;;;;;;;9.19;75.31;102034.81;4972247;28;20038;-88
2022/05/28 02:57:58;;;;;;;11.70;3.10;;;;;;;9.17;75.70;102024.97;4989332;28;20084;-89
2022/05/28 03:00:24;;;;;;;9.82;3.38;;;;;;;9.13;76.80;102018.81;4978749;28;20045;-90
2022/05/28 03:02:49;;;;;;;10.45;3.20;;;;;;;9.15;76.15;102029.59;4975937;28;20104;-91
2022/05/28 03:05:19;;;;;;;12.60;3.38;;;;;;;9.06;76.47;102020.06;4986812;28;20136;-88
2022/05/28 03:07:44;;;;;;;10.50;3.00;;;;;;;9.05;76.59;102025.56;4965400;28;20026;-88
2022/05/28 03:10:11;;;;;;;11.65;4.10;;;;;;;8.98;76.50;102021.38;4993021;28;20722;-91
2022/05/28 03:12:37;;;;;;;12.55;5.00;;;;;;;8.96;76.52;102009.72;4990061;28;20072;-90
2022/05/28 03:15:04;;;;;;;11.10;3.13;;;;;;;8.99;76.79;102032.16;4962097;28;20027;-93
2022/05/28 03:17:29;;;;;;;10.77;2.97;;;;;;;8.99;77.31;102036.69;5002258;28;20136;-91
2022/05/28 03:19:55;;;;;;;9.55;3.22;;;;;;;8.95;77.31;102033.25;4982782;28;20473;-92
2022/05/28 03:22:20;;;;;;;6.90;3.03;;;;;;;8.89;77.19;102028.09;4972392;28;20121;-87
2022/05/28 03:24:45;;;;;;;9.15;3.58;;;;;;;8.90;77.70;102038.88;5004648;28;20045;-89
2022/05/28 03:27:11;;;;;;;13.30;3.58;;;;;;;8.89;77.10;102036.25;4975761;28;20116;-89
2022/05/28 03:29:39;;;;;;;8.65;2.97;;;;;;;8.85;76.87;102035.50;4991660;28;20037;-86
2022/05/28 03:32:05;;;;;;;13.60;3.30;;;;;;;8.87;77.16;102039.03;5013642;28;20133;-88
2022/05/28 03:34:30;;;;;;;9.43;3.17;;;;;;;8.87;77.26;102036.31;4980387;28;20052;-89
2022/05/28 03:36:56;;;;;;;7.72;2.70;;;;;;;8.83;77.08;102040.13;4975480;28;20030;-90
2022/05/28 03:39:22;;;;;;;12.38;3.85;;;;;;;8.83;77.57;102033.81;4994318;28;20037;-89
2022/05/28 03:41:47;;;;;;;14.00;3.15;;;;;;;8.80;77.69;102037.53;4976788;28;20113;-88
2022/05/28 03:44:12;;;;;;;10.45;3.20;;;;;;;8.80;77.45;102031.25;4992951;28;20030;-89
2022/05/28 03:46:38;;;;;;;9.85;3.22;;;;;;;8.77;76.88;102032.28;4977096;28;20053;-92
2022/05/28 03:49:18;;;;;;;10.65;2.65;;;;;;;8.85;77.54;102042.75;4986975;28;20124;-91
2022/05/28 03:51:43;;;;;;;7.38;3.03;;;;;;;8.84;77.06;102046.44;4995970;28;20049;-90
2022/05/28 03:54:09;;;;;;;15.25;3.55;;;;;;;8.83;77.57;102042.84;4970296;28;20042;-89
2022/05/28 03:56:38;;;;;;;8.57;2.75;;;;;;;8.78;77.93;102041.31;4988522;28;20084;-92
2022/05/28 03:59:04;;;;;;;7.47;3.20;;;;;;;8.88;76.78;102057.06;5009983;28;20548;-87
2022/05/28 04:01:30;;;;;;;8.23;3.03;;;;;;;8.88;78.07;102048.06;4966972;28;20449;-86
2022/05/28 04:03:55;;;;;;;7.93;3.10;;;;;;;8.85;77.90;102048.19;4988650;28;20038;-88
2022/05/28 04:06:22;;;;;;;9.13;3.55;;;;;;;8.89;77.65;102049.81;4985710;28;20028;-90
2022/05/28 04:08:47;;;;;;;9.68;2.97;;;;;;;8.88;77.82;102046.22;5011410;28;20037;-87
2022/05/28 04:11:14;;;;;;;6.07;3.15;;;;;;;8.92;78.82;102041.53;4992312;28;20100;-88
2022/05/28 04:13:39;;;;;;;9.50;3.03;;;;;;;8.98;77.91;102057.53;4990389;28;20405;-89
2022/05/28 04:16:05;;;;;;;12.73;4.00;;;;;;;9.03;78.41;102062.75;4989729;28;20030;-90
2022/05/28 04:18:31;;;;;;;10.23;3.17;;;;;;;9.05;79.22;102059.03;4991986;28;20022;-90
2022/05/28 04:20:57;;;;;;;7.03;3.47;;;;;;;9.05;79.50;102058.16;4972327;28;20492;-91
2022/05/28 04:23:22;;;;;;;13.55;3.50;;;;;;;9.09;79.64;102062.44;4976324;28;20034;-89
2022/05/28 04:25:48;;;;;;;10.55;2.97;;;;;;;9.06;79.24;102049.91;5001242;28;20033;-89
2022/05/28 04:28:17;;;;;;;11.70;3.55;;;;;;;9.16;78.87;102070.25;4977476;28;20059;-89
2022/05/28 04:30:46;;;;;;;9.43;2.65;;;;;;;9.21;80.23;102070.03;4989587;28;20037;-89
2022/05/28 04:33:11;;;;;;;14.07;3.53;;;;;;;9.17;79.67;102055.72;4973385;28;20382;-90
2022/05/28 04:35:37;;;;;;;10.38;2.83;;;;;;;9.28;79.57;102079.66;4980454;28;20045;-90
2022/05/28 04:38:05;;;;;;;11.38;3.90;;;;;;;9.28;79.91;102073.31;5003035;28;20041;-90
2022/05/28 04:40:31;;;;;;;12.00;2.78;;;;;;;9.24;78.77;102064.47;4990928;28;20042;-91
2022/05/28 04:42:56;;;;;;;9.98;2.60;;;;;;;9.29;79.79;102064.25;4968980;28;20140;-88
2022/05/28 04:45:21;;;;;;;7.97;3.03;;;;;;;9.29;79.89;102072.41;4987572;28;20391;-90
2022/05/28 04:47:53;;;;;;;8.85;2.67;;;;;;;9.26;79.89;102067.09;4985535;28;20029;-91
2022/05/28 04:50:22;;;;;;;8.38;2.63;;;;;;;9.28;79.50;102051.59;4982397;28;20041;-90
2022/05/28 04:52:48;;;;;;;8.73;2.95;;;;;;;9.31;79.84;102051.47;4999554;28;20037;-88
2022/05/28 04:55:13;;;;;;;14.07;2.95;;;;;;;9.34;78.34;102048.63;4981162;28;20474;-91
2022/05/28 04:57:39;;;;;;;11.55;2.63;;;;;;;9.52;80.35;102074.03;4997943;28;20462;-92
2022/05/28 05:00:18;;;;;;;8.25;2.28;;;;;;;9.58;78.57;102079.16;4970607;28;20057;-94
2022/05/28 05:02:44;;;;;;;7.38;2.50;;;;;;;9.52;79.81;102055.88;4985519;28;20078;-90
2022/05/28 05:05:10;;;;;;;8.88;2.75;;;;;;;9.61;80.13;102079.88;5017407;28;20404;-90
2022/05/28 05:07:42;;;;;;;9.93;2.78;;;;;;;9.67;80.23;102082.28;5001945;28;20042;-91
2022/05/28 05:10:12;;;;;;;10.63;2.38;;;;;;;9.77;81.65;102093.59;4990956;28;20030;-95
2022/05/28 05:12:41;;;;;;;7.70;2.67;;;;;;;9.78;81.31;102084.47;5018581;28;20029;-93
2022/05/28 05:15:13;;;;;;;10.75;2.15;;;;;;;9.84;81.35;102076.03;5005116;28;20037;-93
2022/05/28 05:17:41;;;;;;;8.77;2.20;;;;;;;9.90;81.32;102075.72;4987556;28;20477;-92
2022/05/28 05:20:13;;;;;;;8.40;2.15;;;;;;;9.99;81.38;102082.53;5002267;28;20037;-91
2022/05/28 05:22:42;;;;;;;8.52;1.92;;;;;;;10.04;81.46;102074.16;5004179;28;20088;-93
2022/05/28 05:25:17;;;;;;;10.88;2.22;;;;;;;10.23;80.60;102096.72;4999144;28;20041;-92
2022/05/28 05:27:45;;;;;;;10.57;2.65;;;;;;;10.18;79.97;102077.06;4987493;28;20046;-93
2022/05/28 05:30:16;;;;;;;11.98;2.05;;;;;;;10.16;79.43;102058.06;4987788;28;20034;-92
2022/05/28 05:32:44;;;;;;;9.25;1.85;;;;;;;10.25;79.01;102064.91;4983851;28;20089;-94
2022/05/28 05:35:16;;;;;;;11.38;1.67;;;;;;;10.40;78.45;102080.47;4993833;28;20046;-94
2022/05/28 05:37:44;;;;;;;7.93;1.67;;;;;;;10.43;78.42;102084.84;4986701;28;20018;-94
2022/05/28 05:40:16;;;;;;;8.65;1.42;;;;;;;10.54;77.37;102085.19;4987775;28;20383;-92
2022/05/28 05:42:47;;;;;;;7.38;1.60;;;;;;;10.53;77.44;102083.41;4999537;28;20036;-93
2022/05/28 05:45:16;;;;;;;9.00;1.65;;;;;;;10.61;76.96;102083.00;4982108;28;20101;-93
2022/05/28 05:47:48;;;;;;;7.32;1.63;;;;;;;10.67;77.16;102090.84;4972084;28;20038;-91
2022/05/28 05:50:17;;;;;;;9.38;1.17;;;;;;;10.68;76.83;102088.06;4976646;28;20038;-92
2022/05/28 05:56:23;;;;;;;10.30;2.20;;;;;;;10.69;75.71;102073.47;4988068;28;20060;-91
2022/05/28 05:58:49;;;;;;;6.80;1.20;;;;;;;11.01;74.21;102111.72;4979475;28;20034;-93
2022/05/28 06:01:20;;;;;;;10.10;1.40;;;;;;;10.99;74.76;102100.88;5004372;28;20357;-93
2022/05/28 06:03:49;;;;;;;4.10;1.00;;;;;;;10.95;74.61;102084.81;4998623;28;20041;-90
2022/05/28 06:06:15;;;;;;;4.68;1.35;;;;;;;10.98;73.64;102082.78;4994766;28;20044;-90
2022/05/28 06:08:40;;;;;;;6.53;1.15;;;;;;;11.23;73.68;102114.13;5010561;28;20025;-89
2022/05/28 06:11:06;;;;;;;4.53;1.10;;;;;;;11.18;73.36;102099.88;5015198;28;20079;-91
2022/05/28 06:13:31;;;;;;;5.75;1.40;;;;;;;11.12;72.37;102081.16;5007449;28;20029;-89
2022/05/28 06:15:58;;;;;;;7.97;1.05;;;;;;;11.43;72.67;102115.78;4995656;28;20425;-90
2022/05/28 06:18:23;;;;;;;5.85;1.40;;;;;;;11.48;74.18;102113.66;4981763;28;20177;-92
2022/05/28 06:20:53;;;;;;;5.72;1.70;;;;;;;11.54;72.66;102120.63;5002229;28;20048;-90
2022/05/28 06:23:19;;;;;;;7.35;1.20;;;;;;;11.55;71.29;102115.06;4976415;28;20527;-89
2022/05/28 06:25:53;;;;;;;5.63;1.35;;;;;;;11.57;72.65;102115.88;4991420;28;20125;-90
2022/05/28 06:28:20;;;;;;;5.70;1.52;;;;;;;11.63;70.27;102131.00;5006348;28;20053;-89
2022/05/28 06:30:51;;;;;;;7.25;1.80;;;;;;;11.47;69.51;102092.81;4977025;28;20068;-91
2022/05/28 06:33:17;;;;;;;5.80;1.55;;;;;;;11.47;69.02;102101.91;4995934;28;20026;-88
2022/05/28 06:35:55;;;;;;;8.80;1.65;;;;;;;11.66;68.52;102128.13;4984229;28;20482;-93
2022/05/28 06:38:23;;;;;;;3.08;1.08;;;;;;;11.69;69.08;102131.53;4993658;28;20133;-89
2022/05/28 06:40:52;;;;;;;6.70;1.50;;;;;;;11.58;67.83;102100.41;4982742;28;20169;-91
2022/05/28 06:43:33;;;;;;;3.58;1.20;;;;;;;11.79;68.41;102125.56;4981137;28;20137;-95
2022/05/28 06:46:04;;;;;;;10.57;1.55;;;;;;;11.81;67.84;102132.69;4988404;28;20034;-91
2022/05/28 06:48:29;;;;;;;5.20;1.27;;;;;;;11.88;67.41;102125.06;4977123;28;20792;-92
2022/05/28 06:51:04;;;;;;;4.03;1.27;;;;;;;11.93;67.67;102140.19;4974702;28;20129;-93
2022/05/28 06:53:41;;;;;;;8.23;1.63;;;;;;;12.02;67.49;102138.78;4991565;28;20052;-90
2022/05/28 06:56:08;;;;;;;7.55;1.27;;;;;;;12.11;66.60;102140.09;4980370;28;20018;-91
2022/05/28 06:58:34;;;;;;;10.43;1.60;;;;;;;12.13;66.47;102132.72;5001184;28;20038;-88
2022/05/28 07:01:01;;;;;;;7.45;1.55;;;;;;;12.08;66.73;102113.91;4986319;28;20046;-92
2022/05/28 07:03:31;;;;;;;5.93;1.38;;;;;;;12.31;68.03;102139.81;4973938;28;20038;-91
2022/05/28 07:05:59;;;;;;;4.40;1.27;;;;;;;12.44;66.56;102142.69;4995871;28;20038;-91
2022/05/28 07:08:27;;;;;;;6.63;1.50;;;;;;;12.56;67.06;102141.09;4997344;28;20034;-91
2022/05/28 07:10:56;;;;;;;12.27;1.73;;;;;;;12.57;63.78;102140.97;4972314;28;20046;-89
2022/05/28 07:13:30;;;;;;;6.50;1.98;;;;;;;12.59;65.73;102130.88;4958719;28;20053;-88
2022/05/28 07:16:05;;;;;;;8.35;1.45;;;;;;;12.87;64.49;102145.53;5003545;28;20023;-88
2022/05/28 07:18:32;;;;;;;3.05;1.15;;;;;;;13.10;64.47;102139.53;5008269;28;20038;-91
2022/05/28 07:21:01;;;;;;;4.32;1.38;;;;;;;13.17;63.45;102151.84;4975008;28;20030;-92
2022/05/28 07:23:29;;;;;;;7.50;1.25;;;;;;;13.32;63.54;102139.13;4973941;28;20036;-90
2022/05/28 07:26:17;;;;;;;6.60;1.30;;;;;;;13.55;63.88;102147.72;4990517;28;20324;-90
2022/05/28 07:28:45;;;;;;;2.60;1.17;;;;;;;13.68;62.47;102151.41;4988982;28;20103;-88
2022/05/28 07:31:13;;;;;;;5.63;1.10;;;;;;;13.72;61.56;102155.72;4982368;28;20034;-90
2022/05/28 07:33:41;;;;;;;5.35;1.40;;;;;;;13.67;61.15;102149.66;4970802;28;20073;-91
2022/05/28 07:36:09;;;;;;;8.02;1.45;;;;;;;13.72;61.45;102142.03;5000001;28;20030;-89
2022/05/28 07:38:35;;;;;;;4.70;1.38;;;;;;;13.60;60.66;102138.22;4976553;28;20045;-87
2022/05/28 07:41:05;;;;;;;6.45;1.30;;;;;;;13.56;63.21;102146.72;4971864;28;20030;-89
2022/05/28 07:43:34;;;;;;;6.05;1.40;;;;;;;13.48;61.57;102145.38;4991496;28;20215;-90
2022/05/28 07:46:11;;;;;;;4.32;1.23;;;;;;;13.51;60.56;102139.69;4974289;28;20983;-92
2022/05/28 07:48:36;;;;;;;6.43;1.42;;;;;;;13.62;60.84;102143.63;4972622;28;20037;-93
2022/05/28 07:51:02;;;;;;;8.52;1.70;;;;;;;13.85;63.47;102128.41;4988638;28;20053;-93
2022/05/28 07:53:37;;;;;;;6.03;1.67;;;;;;;14.15;61.35;102141.94;4975137;28;20133;-88
2022/05/28 07:56:07;;;;;;;5.55;1.35;;;;;;;14.05;59.36;102122.53;4996216;28;20068;-92
2022/05/28 07:58:33;;;;;;;7.28;1.30;;;;;;;14.02;59.45;102120.84;4983116;28;20080;-87
2022/05/28 08:01:04;;;;;;;5.75;1.23;;;;;;;13.89;60.74;102108.97;4982318;28;20050;-91
2022/05/28 08:03:30;;;;;;;6.07;1.27;;;;;;;13.93;56.48;102112.38;4973867;28;20045;-88
2022/05/28 08:05:59;;;;;;;5.57;1.63;;;;;;;13.76;57.66;102117.13;4991745;28;20029;-89
2022/05/28 08:08:26;;;;;;;5.93;1.20;;;;;;;13.94;57.71;102127.81;4971604;28;20034;-90
2022/05/28 08:10:54;;;;;;;7.72;1.45;;;;;;;14.46;57.62;102124.34;4984863;28;20069;-89
2022/05/28 08:13:24;;;;;;;7.68;1.42;;;;;;;15.06;54.26;102126.53;4983888;28;20481;-92
2022/05/28 08:15:52;;;;;;;2.50;0.93;;;;;;;15.52;55.15;102125.97;4993691;28;20389;-91
2022/05/28 08:18:23;;;;;;;2.10;0.88;;;;;;;15.98;49.11;102141.81;5014236;28;20508;-94
2022/05/28 08:23:43;;;;;;;5.05;1.30;;;;;;;16.16;51.48;102126.72;5010565;28;20042;-89
2022/05/28 08:26:13;;;;;;;5.20;1.02;;;;;;;16.77;53.63;102122.03;4993515;28;20038;-89
2022/05/28 08:28:43;;;;;;;9.00;1.40;;;;;;;17.15;46.92;102128.25;4996754;28;20037;-87
2022/05/28 08:31:15;;;;;;;5.43;1.52;;;;;;;17.07;48.89;102127.00;4991469;28;20021;-88
2022/05/28 08:33:44;;;;;;;3.95;1.17;;;;;;;17.23;46.89;102128.50;4987554;28;20025;-90
2022/05/28 08:36:10;;;;;;;5.20;1.00;;;;;;;17.46;48.90;102123.91;4973562;28;20162;-91
2022/05/28 08:38:53;;;;;;;9.02;1.25;;;;;;;17.58;48.48;102120.16;4989892;28;20045;-93
2022/05/28 08:41:25;;;;;;;4.43;1.27;;;;;;;17.37;50.33;102127.41;4975172;28;20042;-92
2022/05/28 08:44:09;;;;;;;7.93;1.30;;;;;;;17.47;52.27;102125.66;5004125;28;20034;-87
2022/05/28 08:46:36;;;;;;;6.72;1.17;;;;;;;17.28;51.09;102118.00;4965996;28;20049;-90
2022/05/28 08:49:04;;;;;;;2.92;0.90;;;;;;;17.08;49.79;102131.50;4971078;28;20017;-90
2022/05/28 08:51:46;;;;;;;6.38;1.30;;;;;;;16.66;51.07;102132.09;4992136;28;20062;-92
2022/05/28 08:54:30;;;;;;;9.57;1.40;;;;;;;16.53;53.11;102138.53;4990777;28;20072;-90
2022/05/28 08:57:01;;;;;;;4.10;1.50;;;;;;;16.46;51.30;102134.50;4992296;28;20088;-90
2022/05/28 08:59:44;;;;;;;6.20;1.73;;;;;;;16.73;51.55;102126.00;4965361;28;20041;-90
2022/05/28 09:02:40;;;;;;;7.03;1.10;;;;;;;17.35;50.60;102130.28;4975662;28;20079;-92
2022/05/28 09:05:25;;;;;;;2.92;1.10;;;;;;;17.76;50.01;102131.53;5007469;28;20033;-91
2022/05/28 09:07:54;;;;;;;7.28;1.13;;;;;;;17.99;45.85;102129.66;4995383;28;20049;-89
2022/05/28 09:10:19;;;;;;;4.70;1.00;;;;;;;18.58;47.14;102116.31;4990333;28;20034;-89
2022/05/28 09:12:50;;;;;;;4.57;1.30;;;;;;;19.06;43.60;102118.59;5012132;28;20330;-89
2022/05/28 09:15:16;;;;;;;3.00;1.42;;;;;;;19.16;42.56;102101.22;4972602;28;20060;-87
2022/05/28 09:17:54;;;;;;;4.10;1.40;;;;;;;18.96;41.74;102127.81;4986594;28;20026;-91
2022/05/28 09:20:23;;;;;;;7.45;1.10;;;;;;;18.77;41.28;102126.66;4978241;28;20045;-93
2022/05/28 09:22:52;;;;;;;6.60;1.08;;;;;;;18.63;40.91;102120.56;5005813;28;20132;-89
2022/05/28 09:25:23;;;;;;;3.00;1.23;;;;;;;18.68;41.68;102118.28;4978562;28;20432;-88
2022/05/28 09:28:16;;;;;;;4.78;1.20;;;;;;;18.51;43.59;102131.66;4986313;28;20494;-92
2022/05/28 09:31:23;;;;;;;3.80;1.02;;;;;;;19.00;42.81;102119.13;4972432;28;20042;-92
2022/05/28 09:33:58;;;;;;;4.70;1.02;;;;;;;19.16;41.78;102121.41;4985435;28;20129;-89
2022/05/28 09:37:08;;;;;;;6.38;0.98;;;;;;;19.39;42.76;102119.34;4989947;28;20057;-86
2022/05/28 09:40:02;;;;;;;2.65;1.02;;;;;;;19.29;42.69;102126.72;4966985;28;20046;-90
2022/05/28 09:42:52;;;;;;;6.25;1.10;;;;;;;18.94;41.42;102116.06;4984825;28;20141;-90
2022/05/28 09:45:55;;;;;;;8.27;1.30;;;;;;;18.91;40.30;102113.56;5018377;28;20030;-89
2022/05/28 09:48:26;;;;;;;5.18;1.00;;;;;;;19.01;43.37;102115.34;4997506;28;20074;-89
2022/05/28 09:50:53;;;;;;;4.80;1.13;;;;;;;18.94;38.44;102100.38;4972031;28;20037;-91
2022/05/28 09:56:27;;;;;;;7.50;1.30;;;;;;;19.49;41.82;102113.88;4999933;28;20436;-92
2022/05/28 09:58:53;;;;;;;6.75;1.33;;;;;;;19.37;39.43;102105.69;5008677;28;20132;-87
2022/05/28 10:01:22;;;;;;;8.18;1.30;;;;;;;18.72;42.75;102109.66;4975258;28;20050;-90
2022/05/28 10:06:53;;;;;;;5.88;1.35;;;;;;;18.42;45.21;102103.97;4991463;28;20125;-89
2022/05/28 10:09:34;;;;;;;8.85;1.35;;;;;;;18.28;43.97;102119.81;4979318;28;20034;-91
2022/05/28 10:12:14;;;;;;;5.90;1.27;;;;;;;18.53;45.12;102110.31;4966250;28;20049;-89
2022/05/28 10:14:39;;;;;;;4.28;1.00;;;;;;;19.05;42.70;102111.31;4971130;28;20095;-88
2022/05/28 10:17:06;;;;;;;4.57;1.75;;;;;;;19.19;39.15;102103.72;4979381;28;20474;-88
2022/05/28 10:19:43;;;;;;;8.65;1.73;;;;;;;19.47;42.91;102104.88;4991127;28;20254;-88
2022/05/28 10:22:19;;;;;;;4.55;1.25;;;;;;;19.59;39.17;102101.03;4977587;28;20068;-95
2022/05/28 10:24:52;;;;;;;7.90;1.42;;;;;;;19.74;41.17;102102.41;4964696;28;20042;-89
2022/05/28 10:27:31;;;;;;;5.28;1.60;;;;;;;19.34;38.84;102096.81;5005330;28;20046;-88
2022/05/28 10:30:02;;;;;;;5.07;1.10;;;;;;;18.64;37.65;102100.25;4984058;28;20149;-92
2022/05/28 10:32:33;;;;;;;4.82;1.10;;;;;;;18.55;40.38;102097.28;5009052;28;20030;-88
2022/05/28 10:35:27;;;;;;;4.45;1.17;;;;;;;18.85;38.41;102099.28;5008856;28;20030;-89
2022/05/28 10:38:14;;;;;;;10.07;1.30;;;;;;;19.34;38.22;102094.94;4987291;28;20068;-89
2022/05/28 10:40:48;;;;;;;4.43;0.93;;;;;;;19.48;38.68;102101.09;4991921;28;20065;-89
2022/05/28 10:43:38;;;;;;;4.30;0.80;;;;;;;19.98;38.65;102103.94;4972434;28;20056;-86
2022/05/28 10:46:11;;;;;;;6.47;1.10;;;;;;;20.58;39.47;102085.41;4992809;28;20500;-89
2022/05/28 10:49:01;;;;;;;3.10;0.93;;;;;;;20.89;39.08;102099.94;4987673;28;20520;-90
2022/05/28 10:51:38;;;;;;;3.95;1.17;;;;;;;20.36;33.63;102103.09;4987638;28;20073;-89
2022/05/28 10:54:13;;;;;;;7.40;1.20;;;;;;;19.65;36.93;102092.19;4979993;28;20041;-89
2022/05/28 10:57:05;;;;;;;5.50;1.13;;;;;;;19.92;39.83;102082.41;4973821;28;20323;-87
2022/05/28 10:59:57;;;;;;;7.38;1.30;;;;;;;20.36;37.71;102097.59;5007971;28;20038;-93
2022/05/28 11:02:44;;;;;;;8.68;1.13;;;;;;;20.60;36.28;102092.53;4991524;28;20030;-87
2022/05/28 11:05:10;;;;;;;3.63;0.90;;;;;;;20.45;33.47;102084.78;4996434;28;20119;-89
2022/05/28 11:07:56;;;;;;;7.35;1.00;;;;;;;20.74;36.44;102085.66;4975116;28;20045;-89
2022/05/28 11:10:28;;;;;;;9.52;1.40;;;;;;;20.69;35.72;102085.25;4976327;28;20044;-91
2022/05/28 11:13:13;;;;;;;9.27;1.52;;;;;;;21.04;36.95;102076.31;4992243;28;20048;-90
2022/05/28 11:15:42;;;;;;;5.70;1.42;;;;;;;20.25;33.52;102087.53;5005074;28;20030;-91
2022/05/28 11:18:37;;;;;;;4.28;0.80;;;;;;;20.10;39.38;102091.75;4972887;28;20045;-87
2022/05/28 11:21:09;;;;;;;4.47;0.77;;;;;;;20.65;38.74;102075.50;4987116;28;20479;-89
2022/05/28 11:24:07;;;;;;;5.53;1.13;;;;;;;21.23;37.05;102085.59;4982641;28;20436;-87
2022/05/28 11:26:51;;;;;;;5.82;1.50;;;;;;;20.43;35.34;102087.72;4963567;28;20118;-89
2022/05/28 11:29:26;;;;;;;4.22;1.25;;;;;;;19.42;34.96;102083.22;5007922;28;20053;-91
2022/05/28 11:31:58;;;;;;;2.78;1.13;;;;;;;19.19;38.54;102081.63;5000003;28;20096;-91
2022/05/28 11:34:43;;;;;;;7.35;1.25;;;;;;;19.53;38.46;102087.75;4974843;28;20096;-89
2022/05/28 11:37:43;;;;;;;6.15;0.93;;;;;;;19.77;36.96;102084.66;4982662;28;20036;-89
2022/05/28 11:40:19;;;;;;;4.35;1.10;;;;;;;19.99;37.61;102078.03;4987264;28;20037;-94
2022/05/28 11:42:55;;;;;;;4.93;0.95;;;;;;;20.38;36.37;102070.69;4967709;28;20034;-89
2022/05/28 11:45:32;;;;;;;4.47;1.17;;;;;;;20.26;34.12;102066.31;4988366;28;20549;-90
2022/05/28 11:48:13;;;;;;;4.53;0.93;;;;;;;20.08;31.82;102068.91;4989681;28;20088;-92
2022/05/28 11:53:43;;;;;;;1.75;0.63;;;;;;;20.42;38.41;102063.81;5012883;28;20474;-94
2022/05/28 11:56:15;;;;;;;6.78;1.52;;;;;;;20.99;35.83;102069.50;4995014;28;20129;-90
2022/05/28 11:58:54;;;;;;;5.17;1.40;;;;;;;21.28;35.57;102061.09;4987173;28;20033;-94
2022/05/28 12:01:28;;;;;;;4.35;1.20;;;;;;;21.41;35.27;102058.03;4979482;28;20377;-89
2022/05/28 12:03:53;;;;;;;6.97;1.70;;;;;;;21.60;32.07;102039.41;4994839;28;20107;-89